»·PEaware :: AAL1406 KPHX-KLAX

AAL1406 :: KPHX-KLAX

FLIGHT INFORMATION

Flight Status: Arrived
Operator:
American Airlines
More flights by this operator :: More flights under this callsign
Pilot: Max W. (2591)
Aircraft: AIRBUS A320
(A320)
More flights by this aircraft type
Origin: KPHX Phoenix Sky Harbor Intl
United States
Destination: KLAX Los Angeles Intl
United States
More flights between these airports :: More routes between these airports
Route: +KEENS2 MESSI ESTWD BRUEN2
File this flight plan on PilotEdge
Remarks: STUDENT PILOT PLEASE BE NICE
Altitude:
(Current/Filed)
30,000ft
Speed:
(Current/Filed)
450kts
Departed: 05-Dec-18 06:41 PM
Arrived: 05-Dec-18 07:48 PM
Distance/Time
Traveled:
320nm/1:07
Distance/Time
To Go:
Arrived

Flight Plot

Page will automatically refresh every two minutes.

Flight plan parsing failed; only flown route is shown


Map Options




Map Legend


Flown Route
Filed Route
Departure Airport
Arrival Airport
Navaid (VOR, NDB)
Fix

Horizontal Profiles

Position Reports

Time Latitude Longitude Heading Altitude Ground
Speed
05-Dec-18 18:19 33.438218 -111.998811 240 1118ft 0kts
05-Dec-18 18:20 33.438218 -111.998811 240 1118ft 0kts
05-Dec-18 18:21 33.438218 -111.998811 240 1118ft 0kts
05-Dec-18 18:22 33.438218 -111.998811 240 1118ft 0kts
05-Dec-18 18:23 33.438218 -111.998811 240 1118ft 0kts
05-Dec-18 18:24 33.438218 -111.998811 240 1118ft 0kts
05-Dec-18 18:25 33.438218 -111.998811 240 1118ft 0kts
05-Dec-18 18:26 33.438218 -111.998811 240 1118ft 0kts
05-Dec-18 18:27 33.438218 -111.998811 240 1118ft 0kts
05-Dec-18 18:28 33.438218 -111.998811 240 1118ft 0kts
05-Dec-18 18:29 33.438218 -111.998811 240 1118ft 0kts
05-Dec-18 18:30 33.438218 -111.998811 240 1118ft 0kts
05-Dec-18 18:31 33.438218 -111.998811 240 1118ft 0kts
05-Dec-18 18:32 33.438218 -111.998811 240 1118ft 0kts
05-Dec-18 18:33 33.438218 -111.998811 240 1118ft 0kts
05-Dec-18 18:34 33.438328 -111.998570 260 1118ft 2kts
05-Dec-18 18:35 33.438024 -111.998197 2 1118ft 1kts
05-Dec-18 18:36 33.438019 -111.998197 1 1118ft 0kts
05-Dec-18 18:37 33.439069 -111.997301 87 1118ft 9kts
05-Dec-18 18:38 33.439026 -111.993735 90 1118ft 12kts
05-Dec-18 18:39 33.439675 -111.992264 3 1118ft 6kts
05-Dec-18 18:40 33.440780 -112.015355 269 1313ft 170kts
05-Dec-18 18:41 33.427373 -112.074195 250 3912ft 204kts
05-Dec-18 18:42 33.406509 -112.144271 250 5733ft 262kts
05-Dec-18 18:43 33.395461 -112.230269 276 8677ft 275kts
05-Dec-18 18:44 33.409433 -112.324114 275 10804ft 309kts
05-Dec-18 18:45 33.426027 -112.436296 276 11892ft 363kts
05-Dec-18 18:46 33.443714 -112.556414 275 14409ft 358kts
05-Dec-18 18:47 33.451160 -112.673134 265 16449ft 357kts
05-Dec-18 18:48 33.453610 -112.793367 273 18301ft 367kts
05-Dec-18 18:49 33.491896 -112.911478 286 19888ft 385kts
05-Dec-18 18:50 33.527311 -113.012752 286 21137ft 391kts
05-Dec-18 18:51 33.569794 -113.134674 285 22517ft 397kts
05-Dec-18 18:52 33.612235 -113.256929 285 23014ft 396kts
05-Dec-18 18:53 33.655093 -113.380952 285 23282ft 411kts
05-Dec-18 18:54 33.699305 -113.509236 285 24093ft 422kts
05-Dec-18 18:55 33.743515 -113.638116 285 25116ft 425kts
05-Dec-18 18:56 33.785541 -113.761114 285 26043ft 428kts
05-Dec-18 18:57 33.830972 -113.894527 284 26916ft 432kts
05-Dec-18 18:58 33.876394 -114.028397 284 27957ft 430kts
05-Dec-18 18:59 33.913623 -114.162860 274 28021ft 418kts
05-Dec-18 19:00 33.936940 -114.300444 274 28022ft 419kts
05-Dec-18 19:01 33.960155 -114.438113 274 28021ft 419kts
05-Dec-18 19:02 33.983276 -114.576240 274 28021ft 418kts
05-Dec-18 19:03 34.005845 -114.712048 274 28021ft 418kts
05-Dec-18 19:04 34.027615 -114.843965 274 28024ft 418kts
05-Dec-18 19:05 34.050230 -114.981982 274 28029ft 418kts
05-Dec-18 19:06 34.072617 -115.119347 275 28029ft 416kts
05-Dec-18 19:07 34.094824 -115.256460 275 28041ft 415kts
05-Dec-18 19:08 34.115099 -115.382555 275 28065ft 415kts
05-Dec-18 19:09 34.136980 -115.519613 275 28075ft 415kts
05-Dec-18 19:10 34.158003 -115.652322 274 28076ft 414kts
05-Dec-18 19:11 34.154502 -115.787411 259 28076ft 404kts
05-Dec-18 19:12 34.141360 -115.922529 259 28076ft 405kts
05-Dec-18 19:13 34.128173 -116.057337 260 28076ft 405kts
05-Dec-18 19:14 34.114838 -116.192589 260 28073ft 405kts
05-Dec-18 19:15 34.101355 -116.326773 259 28055ft 405kts
05-Dec-18 19:17 34.086971 -116.460774 259 28048ft 405kts
05-Dec-18 19:18 34.072464 -116.595027 259 28048ft 405kts
05-Dec-18 19:19 34.060670 -116.723012 259 27425ft 399kts
05-Dec-18 19:20 34.048540 -116.852718 260 25866ft 373kts
05-Dec-18 19:21 34.035357 -116.971241 257 24465ft 348kts
05-Dec-18 19:22 34.022051 -117.083171 257 22896ft 335kts
05-Dec-18 19:23 34.008583 -117.195514 257 21296ft 338kts
05-Dec-18 19:24 33.999035 -117.306439 261 19685ft 330kts
05-Dec-18 19:25 33.991544 -117.415971 261 18118ft 330kts
05-Dec-18 19:26 33.984075 -117.524290 262 16513ft 322kts
05-Dec-18 19:27 33.976854 -117.630366 262 14992ft 316kts
05-Dec-18 19:28 33.969823 -117.732411 261 13871ft 314kts
05-Dec-18 19:29 33.960425 -117.839736 261 13051ft 341kts
05-Dec-18 19:30 33.950879 -117.948274 262 11203ft 321kts
05-Dec-18 19:31 33.942185 -118.050625 263 10291ft 292kts
05-Dec-18 19:32 33.935661 -118.140760 263 9573ft 268kts
05-Dec-18 19:33 33.929063 -118.229309 259 8353ft 265kts
05-Dec-18 19:34 33.898309 -118.298021 236 7277ft 258kts
05-Dec-18 19:35 33.861793 -118.368634 236 6809ft 249kts
05-Dec-18 19:36 33.849575 -118.449857 263 5988ft 249kts
05-Dec-18 19:37 33.841989 -118.532264 263 4946ft 245kts
05-Dec-18 19:37 33.835219 -118.599465 263 3623ft 242kts
05-Dec-18 19:39 33.825300 -118.688789 262 3033ft 243kts
05-Dec-18 19:39 33.828576 -118.753907 315 3035ft 237kts
05-Dec-18 19:41 33.884240 -118.738720 53 3033ft 193kts
05-Dec-18 19:41 33.905276 -118.692481 79 3034ft 191kts
05-Dec-18 19:42 33.912340 -118.629890 82 3027ft 187kts
05-Dec-18 19:43 33.918515 -118.568500 82 2603ft 175kts
05-Dec-18 19:44 33.924022 -118.513743 81 1699ft 144kts
05-Dec-18 19:45 33.928884 -118.467003 81 939ft 139kts
05-Dec-18 19:46 33.933453 -118.421066 82 216ft 138kts
05-Dec-18 19:47 33.936918 -118.396244 57 115ft 0kts
05-Dec-18 19:48 33.937007 -118.396048 63 115ft 8kts
05-Dec-18 19:49 33.937937 -118.393679 5 112ft 19kts
05-Dec-18 19:50 33.939517 -118.394142 239 113ft 0kts
05-Dec-18 19:51 33.942073 -118.393118 333 111ft 16kts

Navigation Log

Ident Type
Flight plan parsing failed, navigation log unavailable